sensor_id;sensor_type;location;lat;lon;timestamp;temperature;humidity
52435;DHT22;38354;52.892;6.148;2022-10-20T03:01:57;7.40;99.90
52435;DHT22;38354;52.892;6.148;2022-10-20T03:04:23;7.40;99.90
52435;DHT22;38354;52.892;6.148;2022-10-20T03:06:49;7.40;99.90
52435;DHT22;38354;52.892;6.148;2022-10-20T03:09:14;7.40;99.90
52435;DHT22;38354;52.892;6.148;2022-10-20T03:11:41;7.40;99.90
52435;DHT22;38354;52.892;6.148;2022-10-20T03:14:06;7.30;99.90
52435;DHT22;38354;52.892;6.148;2022-10-20T03:16:32;7.30;99.90
52435;DHT22;38354;52.892;6.148;2022-10-20T03:18:57;7.30;99.90
52435;DHT22;38354;52.892;6.148;2022-10-20T03:21:23;7.30;99.90
52435;DHT22;38354;52.892;6.148;2022-10-20T03:23:49;7.30;99.90
52435;DHT22;38354;52.892;6.148;2022-10-20T03:26:14;7.30;99.90
52435;DHT22;38354;52.892;6.148;2022-10-20T03:28:40;7.20;99.90
52435;DHT22;38354;52.892;6.148;2022-10-20T03:31:06;7.20;99.90
52435;DHT22;38354;52.892;6.148;2022-10-20T03:33:32;7.20;99.90
52435;DHT22;38354;52.892;6.148;2022-10-20T03:35:58;7.30;99.90
52435;DHT22;38354;52.892;6.148;2022-10-20T03:38:23;7.20;99.90
52435;DHT22;38354;52.892;6.148;2022-10-20T03:40:49;7.20;99.90
52435;DHT22;38354;52.892;6.148;2022-10-20T03:43:15;7.20;99.90
52435;DHT22;38354;52.892;6.148;2022-10-20T03:45:42;7.20;99.90
52435;DHT22;38354;52.892;6.148;2022-10-20T03:48:08;7.20;99.90
52435;DHT22;38354;52.892;6.148;2022-10-20T03:50:37;7.20;99.90
52435;DHT22;38354;52.892;6.148;2022-10-20T03:53:03;7.20;99.90
52435;DHT22;38354;52.892;6.148;2022-10-20T03:55:28;7.20;99.90
52435;DHT22;38354;52.892;6.148;2022-10-20T03:57:54;7.20;99.90
52435;DHT22;38354;52.892;6.148;2022-10-20T04:00:20;7.20;99.90
52435;DHT22;38354;52.892;6.148;2022-10-20T04:02:46;7.20;99.90
52435;DHT22;38354;52.892;6.148;2022-10-20T04:05:14;7.20;99.90
52435;DHT22;38354;52.892;6.148;2022-10-20T04:07:40;7.20;99.90
52435;DHT22;38354;52.892;6.148;2022-10-20T04:10:07;7.20;99.90
52435;DHT22;38354;52.892;6.148;2022-10-20T04:12:32;7.20;99.90
52435;DHT22;38354;52.892;6.148;2022-10-20T04:14:58;7.20;99.90
52435;DHT22;38354;52.892;6.148;2022-10-20T04:17:24;7.20;99.90
52435;DHT22;38354;52.892;6.148;2022-10-20T04:19:49;7.20;99.90
52435;DHT22;38354;52.892;6.148;2022-10-20T04:22:15;7.20;99.90
52435;DHT22;38354;52.892;6.148;2022-10-20T04:24:40;7.20;99.90
52435;DHT22;38354;52.892;6.148;2022-10-20T04:27:06;7.20;99.90
52435;DHT22;38354;52.892;6.148;2022-10-20T04:29:32;7.20;99.90
52435;DHT22;38354;52.892;6.148;2022-10-20T04:31:58;7.20;99.90
52435;DHT22;38354;52.892;6.148;2022-10-20T04:34:23;7.20;99.90
52435;DHT22;38354;52.892;6.148;2022-10-20T04:36:49;7.20;99.90
52435;DHT22;38354;52.892;6.148;2022-10-20T04:39:15;7.20;99.90
52435;DHT22;38354;52.892;6.148;2022-10-20T04:41:40;7.10;99.90
52435;DHT22;38354;52.892;6.148;2022-10-20T04:44:06;7.20;99.90
52435;DHT22;38354;52.892;6.148;2022-10-20T04:46:32;7.10;99.90
52435;DHT22;38354;52.892;6.148;2022-10-20T04:48:57;7.20;99.90
52435;DHT22;38354;52.892;6.148;2022-10-20T04:51:23;7.20;99.90
52435;DHT22;38354;52.892;6.148;2022-10-20T04:53:49;7.20;99.90
52435;DHT22;38354;52.892;6.148;2022-10-20T04:56:17;7.10;99.90
52435;DHT22;38354;52.892;6.148;2022-10-20T04:58:51;7.20;99.90
52435;DHT22;38354;52.892;6.148;2022-10-20T05:01:17;7.10;99.90
52435;DHT22;38354;52.892;6.148;2022-10-20T05:03:43;7.20;99.90
52435;DHT22;38354;52.892;6.148;2022-10-20T05:06:16;7.10;99.90
52435;DHT22;38354;52.892;6.148;2022-10-20T05:08:44;7.10;99.90
52435;DHT22;38354;52.892;6.148;2022-10-20T05:11:12;7.10;99.90
52435;DHT22;38354;52.892;6.148;2022-10-20T05:13:38;7.10;99.90
52435;DHT22;38354;52.892;6.148;2022-10-20T05:16:04;7.10;99.90
52435;DHT22;38354;52.892;6.148;2022-10-20T05:18:31;7.10;99.90
52435;DHT22;38354;52.892;6.148;2022-10-20T05:20:57;7.10;99.90
52435;DHT22;38354;52.892;6.148;2022-10-20T05:23:23;7.10;99.90
52435;DHT22;38354;52.892;6.148;2022-10-20T05:25:48;7.10;99.90
52435;DHT22;38354;52.892;6.148;2022-10-20T05:28:14;7.10;99.90
52435;DHT22;38354;52.892;6.148;2022-10-20T05:30:40;7.10;99.90
52435;DHT22;38354;52.892;6.148;2022-10-20T05:33:05;7.10;99.90
52435;DHT22;38354;52.892;6.148;2022-10-20T05:35:31;7.10;99.90
52435;DHT22;38354;52.892;6.148;2022-10-20T05:37:57;7.20;99.90
52435;DHT22;38354;52.892;6.148;2022-10-20T05:40:23;7.10;99.90
52435;DHT22;38354;52.892;6.148;2022-10-20T05:42:49;7.10;99.90
52435;DHT22;38354;52.892;6.148;2022-10-20T05:45:15;7.10;99.90
52435;DHT22;38354;52.892;6.148;2022-10-20T05:47:41;7.10;99.90
52435;DHT22;38354;52.892;6.148;2022-10-20T05:50:09;7.10;99.90
52435;DHT22;38354;52.892;6.148;2022-10-20T05:52:35;7.10;99.90
52435;DHT22;38354;52.892;6.148;2022-10-20T05:55:02;7.10;99.90
52435;DHT22;38354;52.892;6.148;2022-10-20T05:57:28;7.10;99.90
52435;DHT22;38354;52.892;6.148;2022-10-20T05:59:53;7.10;99.90
52435;DHT22;38354;52.892;6.148;2022-10-20T06:02:19;7.00;99.90
52435;DHT22;38354;52.892;6.148;2022-10-20T06:04:45;7.10;99.90
52435;DHT22;38354;52.892;6.148;2022-10-20T06:07:11;7.10;99.90
52435;DHT22;38354;52.892;6.148;2022-10-20T06:09:37;7.10;99.90
52435;DHT22;38354;52.892;6.148;2022-10-20T06:12:04;7.10;99.90
52435;DHT22;38354;52.892;6.148;2022-10-20T06:14:30;7.10;99.90
52435;DHT22;38354;52.892;6.148;2022-10-20T06:16:56;7.10;99.90
52435;DHT22;38354;52.892;6.148;2022-10-20T06:19:23;7.00;99.90
52435;DHT22;38354;52.892;6.148;2022-10-20T06:21:49;7.10;99.90
52435;DHT22;38354;52.892;6.148;2022-10-20T06:24:15;7.10;99.90
52435;DHT22;38354;52.892;6.148;2022-10-20T06:26:42;7.10;99.90
52435;DHT22;38354;52.892;6.148;2022-10-20T06:29:13;7.10;99.90
52435;DHT22;38354;52.892;6.148;2022-10-20T06:31:44;7.10;99.90
52435;DHT22;38354;52.892;6.148;2022-10-20T06:34:22;7.10;99.90
52435;DHT22;38354;52.892;6.148;2022-10-20T06:36:48;7.20;99.90
52435;DHT22;38354;52.892;6.148;2022-10-20T06:39:19;7.20;99.90
52435;DHT22;38354;52.892;6.148;2022-10-20T06:41:51;7.20;99.90
52435;DHT22;38354;52.892;6.148;2022-10-20T06:44:17;7.20;99.90
52435;DHT22;38354;52.892;6.148;2022-10-20T06:46:43;7.20;99.90
52435;DHT22;38354;52.892;6.148;2022-10-20T06:49:09;7.30;99.90
52435;DHT22;38354;52.892;6.148;2022-10-20T06:51:36;7.30;99.90
52435;DHT22;38354;52.892;6.148;2022-10-20T06:54:02;7.30;99.90
52435;DHT22;38354;52.892;6.148;2022-10-20T06:56:31;7.30;99.90
52435;DHT22;38354;52.892;6.148;2022-10-20T06:58:57;7.30;99.90
52435;DHT22;38354;52.892;6.148;2022-10-20T07:03:51;7.30;99.90
52435;DHT22;38354;52.892;6.148;2022-10-20T07:06:25;7.40;99.90
52435;DHT22;38354;52.892;6.148;2022-10-20T07:08:52;7.40;99.90
52435;DHT22;38354;52.892;6.148;2022-10-20T07:11:19;7.40;99.90
52435;DHT22;38354;52.892;6.148;2022-10-20T07:13:45;7.40;99.90
52435;DHT22;38354;52.892;6.148;2022-10-20T07:16:15;7.40;99.90
52435;DHT22;38354;52.892;6.148;2022-10-20T07:18:42;7.40;99.90
52435;DHT22;38354;52.892;6.148;2022-10-20T07:21:13;7.50;99.90
52435;DHT22;38354;52.892;6.148;2022-10-20T07:23:39;7.50;99.90
52435;DHT22;38354;52.892;6.148;2022-10-20T07:26:14;7.50;99.90
52435;DHT22;38354;52.892;6.148;2022-10-20T07:28:42;7.60;99.90
52435;DHT22;38354;52.892;6.148;2022-10-20T07:31:11;7.60;99.90
52435;DHT22;38354;52.892;6.148;2022-10-20T07:33:37;7.60;99.90
52435;DHT22;38354;52.892;6.148;2022-10-20T07:36:20;7.70;99.90
52435;DHT22;38354;52.892;6.148;2022-10-20T07:38:46;7.70;99.90
52435;DHT22;38354;52.892;6.148;2022-10-20T07:41:13;7.70;99.90
52435;DHT22;38354;52.892;6.148;2022-10-20T07:43:39;7.80;99.90
52435;DHT22;38354;52.892;6.148;2022-10-20T07:46:06;7.80;99.90
52435;DHT22;38354;52.892;6.148;2022-10-20T07:48:32;7.90;99.90
52435;DHT22;38354;52.892;6.148;2022-10-20T07:53:38;7.90;99.90
52435;DHT22;38354;52.892;6.148;2022-10-20T07:56:04;8.00;99.90
52435;DHT22;38354;52.892;6.148;2022-10-20T07:58:30;8.10;99.90
52435;DHT22;38354;52.892;6.148;2022-10-20T08:00:56;8.10;99.90
52435;DHT22;38354;52.892;6.148;2022-10-20T08:03:21;8.10;99.90
52435;DHT22;38354;52.892;6.148;2022-10-20T08:05:47;8.20;99.90
52435;DHT22;38354;52.892;6.148;2022-10-20T08:08:12;8.20;99.90
52435;DHT22;38354;52.892;6.148;2022-10-20T08:10:38;8.20;99.90
52435;DHT22;38354;52.892;6.148;2022-10-20T08:13:04;8.30;99.90
52435;DHT22;38354;52.892;6.148;2022-10-20T08:15:29;8.40;99.90
52435;DHT22;38354;52.892;6.148;2022-10-20T08:17:55;8.40;99.90
52435;DHT22;38354;52.892;6.148;2022-10-20T08:20:20;8.40;99.90
52435;DHT22;38354;52.892;6.148;2022-10-20T08:22:46;8.50;99.90
52435;DHT22;38354;52.892;6.148;2022-10-20T08:25:16;8.50;99.90
52435;DHT22;38354;52.892;6.148;2022-10-20T08:27:41;8.60;99.90
52435;DHT22;38354;52.892;6.148;2022-10-20T08:30:08;8.60;99.90
52435;DHT22;38354;52.892;6.148;2022-10-20T08:32:34;8.70;99.90
52435;DHT22;38354;52.892;6.148;2022-10-20T08:34:59;8.70;99.90
52435;DHT22;38354;52.892;6.148;2022-10-20T08:37:25;8.80;99.90
52435;DHT22;38354;52.892;6.148;2022-10-20T08:39:50;8.80;99.90
52435;DHT22;38354;52.892;6.148;2022-10-20T08:42:17;8.90;99.90
52435;DHT22;38354;52.892;6.148;2022-10-20T08:44:45;9.00;99.90
52435;DHT22;38354;52.892;6.148;2022-10-20T08:47:31;9.00;99.90
52435;DHT22;38354;52.892;6.148;2022-10-20T08:50:00;9.10;99.90
52435;DHT22;38354;52.892;6.148;2022-10-20T08:52:26;9.20;99.90
52435;DHT22;38354;52.892;6.148;2022-10-20T08:54:55;9.40;99.90
52435;DHT22;38354;52.892;6.148;2022-10-20T08:57:29;9.40;99.90
52435;DHT22;38354;52.892;6.148;2022-10-20T09:00:12;9.40;99.90
52435;DHT22;38354;52.892;6.148;2022-10-20T09:02:38;9.40;99.90
52435;DHT22;38354;52.892;6.148;2022-10-20T09:05:05;9.40;99.90
52435;DHT22;38354;52.892;6.148;2022-10-20T09:07:37;9.50;99.90
52435;DHT22;38354;52.892;6.148;2022-10-20T09:12:49;9.50;99.90
52435;DHT22;38354;52.892;6.148;2022-10-20T09:15:16;9.50;99.90
52435;DHT22;38354;52.892;6.148;2022-10-20T09:18:16;9.50;99.90
52435;DHT22;38354;52.892;6.148;2022-10-20T09:20:52;9.50;99.90
52435;DHT22;38354;52.892;6.148;2022-10-20T09:23:29;9.60;99.90
52435;DHT22;38354;52.892;6.148;2022-10-20T09:25:55;9.70;99.90
52435;DHT22;38354;52.892;6.148;2022-10-20T09:28:23;9.70;99.90
52435;DHT22;38354;52.892;6.148;2022-10-20T09:30:51;9.80;99.90
52435;DHT22;38354;52.892;6.148;2022-10-20T09:33:29;10.00;99.90
52435;DHT22;38354;52.892;6.148;2022-10-20T09:36:09;10.20;99.90
52435;DHT22;38354;52.892;6.148;2022-10-20T09:38:41;10.40;99.90
52435;DHT22;38354;52.892;6.148;2022-10-20T09:43:45;10.80;99.90
52435;DHT22;38354;52.892;6.148;2022-10-20T09:46:17;10.90;99.90
52435;DHT22;38354;52.892;6.148;2022-10-20T09:48:47;11.00;99.90
52435;DHT22;38354;52.892;6.148;2022-10-20T09:51:18;11.00;99.90
52435;DHT22;38354;52.892;6.148;2022-10-20T09:54:05;11.10;99.90
52435;DHT22;38354;52.892;6.148;2022-10-20T09:56:36;11.10;99.90
52435;DHT22;38354;52.892;6.148;2022-10-20T10:04:38;11.40;99.90
52435;DHT22;38354;52.892;6.148;2022-10-20T10:07:09;11.50;99.90
52435;DHT22;38354;52.892;6.148;2022-10-20T10:09:56;11.50;99.90
52435;DHT22;38354;52.892;6.148;2022-10-20T10:12:24;11.70;99.90
52435;DHT22;38354;52.892;6.148;2022-10-20T10:15:21;11.90;99.90
52435;DHT22;38354;52.892;6.148;2022-10-20T10:17:49;12.00;99.90
52435;DHT22;38354;52.892;6.148;2022-10-20T10:22:43;12.30;99.90
52435;DHT22;38354;52.892;6.148;2022-10-20T10:25:17;12.40;99.90
52435;DHT22;38354;52.892;6.148;2022-10-20T10:28:18;12.50;99.90
52435;DHT22;38354;52.892;6.148;2022-10-20T10:30:41;12.50;99.90
52435;DHT22;38354;52.892;6.148;2022-10-20T10:33:27;12.60;99.90
52435;DHT22;38354;52.892;6.148;2022-10-20T10:35:54;12.70;99.90
52435;DHT22;38354;52.892;6.148;2022-10-20T10:38:20;12.80;99.90
52435;DHT22;38354;52.892;6.148;2022-10-20T10:43:35;12.80;99.90
52435;DHT22;38354;52.892;6.148;2022-10-20T10:46:19;12.80;99.90
52435;DHT22;38354;52.892;6.148;2022-10-20T10:54:22;12.70;99.90
52435;DHT22;38354;52.892;6.148;2022-10-20T10:56:50;12.60;99.90
52435;DHT22;38354;52.892;6.148;2022-10-20T11:28:56;12.20;99.90
52435;DHT22;38354;52.892;6.148;2022-10-20T11:31:56;12.20;99.90
52435;DHT22;38354;52.892;6.148;2022-10-20T11:34:48;12.20;99.90
52435;DHT22;38354;52.892;6.148;2022-10-20T11:39:44;12.20;99.90
52435;DHT22;38354;52.892;6.148;2022-10-20T11:47:59;12.20;99.90
52435;DHT22;38354;52.892;6.148;2022-10-20T11:50:26;12.20;99.90
52435;DHT22;38354;52.892;6.148;2022-10-20T12:03:12;12.20;99.90
52435;DHT22;38354;52.892;6.148;2022-10-20T12:06:22;12.20;99.90
52435;DHT22;38354;52.892;6.148;2022-10-20T12:14:23;12.10;99.90
52435;DHT22;38354;52.892;6.148;2022-10-20T12:19:27;12.10;99.90
52435;DHT22;38354;52.892;6.148;2022-10-20T12:21:58;12.10;99.90
52435;DHT22;38354;52.892;6.148;2022-10-20T12:27:29;12.00;99.90
52435;DHT22;38354;52.892;6.148;2022-10-20T12:34:54;12.00;99.90
52435;DHT22;38354;52.892;6.148;2022-10-20T12:39:49;11.90;99.90
52435;DHT22;38354;52.892;6.148;2022-10-20T12:42:33;11.90;99.90
52435;DHT22;38354;52.892;6.148;2022-10-20T12:45:06;11.90;99.90
52435;DHT22;38354;52.892;6.148;2022-10-20T12:47:34;11.90;99.90
52435;DHT22;38354;52.892;6.148;2022-10-20T12:50:05;11.90;99.90
52435;DHT22;38354;52.892;6.148;2022-10-20T12:52:37;11.90;99.90
52435;DHT22;38354;52.892;6.148;2022-10-20T12:57:39;11.80;99.90
52435;DHT22;38354;52.892;6.148;2022-10-20T13:02:51;11.80;99.90
52435;DHT22;38354;52.892;6.148;2022-10-20T13:23:14;11.70;99.90
52435;DHT22;38354;52.892;6.148;2022-10-20T13:25:44;11.70;99.90
52435;DHT22;38354;52.892;6.148;2022-10-20T13:28:21;11.70;99.90
52435;DHT22;38354;52.892;6.148;2022-10-20T13:31:09;11.70;99.90
52435;DHT22;38354;52.892;6.148;2022-10-20T13:34:00;11.70;99.90
52435;DHT22;38354;52.892;6.148;2022-10-20T13:42:36;11.60;99.90
52435;DHT22;38354;52.892;6.148;2022-10-20T13:50:37;11.60;99.90
52435;DHT22;38354;52.892;6.148;2022-10-20T13:53:23;11.60;99.90
52435;DHT22;38354;52.892;6.148;2022-10-20T13:58:24;11.60;99.90
52435;DHT22;38354;52.892;6.148;2022-10-20T14:01:03;11.60;99.90
52435;DHT22;38354;52.892;6.148;2022-10-20T14:03:31;11.60;99.90
52435;DHT22;38354;52.892;6.148;2022-10-20T14:05:57;11.60;99.90
52435;DHT22;38354;52.892;6.148;2022-10-20T14:08:24;11.60;99.90
52435;DHT22;38354;52.892;6.148;2022-10-20T14:10:56;11.70;99.90
52435;DHT22;38354;52.892;6.148;2022-10-20T14:13:26;11.70;99.90
52435;DHT22;38354;52.892;6.148;2022-10-20T14:15:58;11.70;99.90
52435;DHT22;38354;52.892;6.148;2022-10-20T14:18:29;11.70;99.90
52435;DHT22;38354;52.892;6.148;2022-10-20T14:21:02;11.70;99.90
52435;DHT22;38354;52.892;6.148;2022-10-20T14:23:34;11.80;99.90
52435;DHT22;38354;52.892;6.148;2022-10-20T14:26:01;11.80;99.90
52435;DHT22;38354;52.892;6.148;2022-10-20T14:28:30;11.80;99.90
52435;DHT22;38354;52.892;6.148;2022-10-20T14:30:57;11.80;99.90
52435;DHT22;38354;52.892;6.148;2022-10-20T14:33:23;11.80;99.90
52435;DHT22;38354;52.892;6.148;2022-10-20T14:35:52;11.90;99.90
52435;DHT22;38354;52.892;6.148;2022-10-20T14:38:31;11.90;99.90
52435;DHT22;38354;52.892;6.148;2022-10-20T14:40:59;11.90;99.90
52435;DHT22;38354;52.892;6.148;2022-10-20T14:43:39;11.90;99.90
52435;DHT22;38354;52.892;6.148;2022-10-20T14:46:07;11.90;99.90
52435;DHT22;38354;52.892;6.148;2022-10-20T14:48:42;11.90;99.90
52435;DHT22;38354;52.892;6.148;2022-10-20T14:51:33;11.90;99.90
52435;DHT22;38354;52.892;6.148;2022-10-20T14:56:46;11.90;99.90
52435;DHT22;38354;52.892;6.148;2022-10-20T14:59:17;11.90;99.90
52435;DHT22;38354;52.892;6.148;2022-10-20T15:01:56;11.90;99.90
52435;DHT22;38354;52.892;6.148;2022-10-20T15:04:26;11.90;99.90
52435;DHT22;38354;52.892;6.148;2022-10-20T15:07:25;11.90;99.90
52435;DHT22;38354;52.892;6.148;2022-10-20T15:10:06;11.90;99.90
52435;DHT22;38354;52.892;6.148;2022-10-20T15:12:40;11.90;99.90
52435;DHT22;38354;52.892;6.148;2022-10-20T15:17:37;12.00;99.90
52435;DHT22;38354;52.892;6.148;2022-10-20T15:20:35;12.10;99.90
52435;DHT22;38354;52.892;6.148;2022-10-20T15:28:47;12.10;99.90
52435;DHT22;38354;52.892;6.148;2022-10-20T15:33:41;12.10;99.90
52435;DHT22;38354;52.892;6.148;2022-10-20T15:36:12;12.10;99.90
52435;DHT22;38354;52.892;6.148;2022-10-20T15:38:43;12.10;99.90
52435;DHT22;38354;52.892;6.148;2022-10-20T15:41:29;12.20;99.90
52435;DHT22;38354;52.892;6.148;2022-10-20T15:43:55;12.20;99.90
52435;DHT22;38354;52.892;6.148;2022-10-20T15:46:20;12.20;99.90
52435;DHT22;38354;52.892;6.148;2022-10-20T15:48:47;12.20;99.90
52435;DHT22;38354;52.892;6.148;2022-10-20T15:51:37;12.20;99.90
52435;DHT22;38354;52.892;6.148;2022-10-20T15:54:03;12.30;99.90
52435;DHT22;38354;52.892;6.148;2022-10-20T15:56:29;12.20;99.90
52435;DHT22;38354;52.892;6.148;2022-10-20T15:58:55;12.20;99.90
52435;DHT22;38354;52.892;6.148;2022-10-20T16:01:20;12.30;99.90
52435;DHT22;38354;52.892;6.148;2022-10-20T16:03:47;12.30;99.90
52435;DHT22;38354;52.892;6.148;2022-10-20T16:06:14;12.30;99.90
52435;DHT22;38354;52.892;6.148;2022-10-20T16:08:41;12.40;99.90
52435;DHT22;38354;52.892;6.148;2022-10-20T16:11:08;12.40;99.90
52435;DHT22;38354;52.892;6.148;2022-10-20T16:13:34;12.40;99.90
52435;DHT22;38354;52.892;6.148;2022-10-20T16:16:01;12.40;99.90
52435;DHT22;38354;52.892;6.148;2022-10-20T16:18:27;12.40;99.90
52435;DHT22;38354;52.892;6.148;2022-10-20T16:20:52;12.40;99.90
52435;DHT22;38354;52.892;6.148;2022-10-20T16:23:18;12.50;99.90
52435;DHT22;38354;52.892;6.148;2022-10-20T16:25:44;12.40;99.90
52435;DHT22;38354;52.892;6.148;2022-10-20T16:28:09;12.50;99.90
52435;DHT22;38354;52.892;6.148;2022-10-20T16:30:35;12.50;99.90
52435;DHT22;38354;52.892;6.148;2022-10-20T16:33:01;12.50;99.90
52435;DHT22;38354;52.892;6.148;2022-10-20T16:35:27;12.50;99.90
52435;DHT22;38354;52.892;6.148;2022-10-20T16:37:53;12.50;99.90
52435;DHT22;38354;52.892;6.148;2022-10-20T16:40:18;12.60;99.90
52435;DHT22;38354;52.892;6.148;2022-10-20T16:42:44;12.60;99.90
52435;DHT22;38354;52.892;6.148;2022-10-20T16:45:10;12.60;99.90
52435;DHT22;38354;52.892;6.148;2022-10-20T16:47:36;12.60;99.90
52435;DHT22;38354;52.892;6.148;2022-10-20T16:50:02;12.60;99.90
52435;DHT22;38354;52.892;6.148;2022-10-20T16:52:28;12.70;99.90
52435;DHT22;38354;52.892;6.148;2022-10-20T16:54:53;12.70;99.90
52435;DHT22;38354;52.892;6.148;2022-10-20T16:57:19;12.70;99.90
52435;DHT22;38354;52.892;6.148;2022-10-20T16:59:45;12.70;99.90
52435;DHT22;38354;52.892;6.148;2022-10-20T17:02:15;12.70;99.90
52435;DHT22;38354;52.892;6.148;2022-10-20T17:04:42;12.80;99.90
52435;DHT22;38354;52.892;6.148;2022-10-20T17:07:09;12.80;99.90
52435;DHT22;38354;52.892;6.148;2022-10-20T17:09:35;12.80;99.90
52435;DHT22;38354;52.892;6.148;2022-10-20T17:12:00;12.90;99.90
52435;DHT22;38354;52.892;6.148;2022-10-20T17:14:26;12.90;99.90
52435;DHT22;38354;52.892;6.148;2022-10-20T17:16:51;12.90;99.90
52435;DHT22;38354;52.892;6.148;2022-10-20T17:19:17;12.90;99.90
52435;DHT22;38354;52.892;6.148;2022-10-20T17:21:43;12.90;99.90
52435;DHT22;38354;52.892;6.148;2022-10-20T17:24:10;13.00;99.90
52435;DHT22;38354;52.892;6.148;2022-10-20T17:26:37;12.90;99.90
52435;DHT22;38354;52.892;6.148;2022-10-20T17:29:03;13.00;99.90
52435;DHT22;38354;52.892;6.148;2022-10-20T17:31:30;13.00;99.90
52435;DHT22;38354;52.892;6.148;2022-10-20T17:33:56;13.00;99.90
52435;DHT22;38354;52.892;6.148;2022-10-20T17:36:23;13.00;99.90
52435;DHT22;38354;52.892;6.148;2022-10-20T17:39:02;13.00;99.90
52435;DHT22;38354;52.892;6.148;2022-10-20T17:41:28;13.10;99.90
52435;DHT22;38354;52.892;6.148;2022-10-20T17:43:54;13.00;99.90
52435;DHT22;38354;52.892;6.148;2022-10-20T17:46:20;13.10;99.90
52435;DHT22;38354;52.892;6.148;2022-10-20T17:48:46;13.10;99.90
52435;DHT22;38354;52.892;6.148;2022-10-20T17:51:17;13.10;99.90
52435;DHT22;38354;52.892;6.148;2022-10-20T17:53:45;13.10;99.90
52435;DHT22;38354;52.892;6.148;2022-10-20T17:56:22;13.10;99.90
52435;DHT22;38354;52.892;6.148;2022-10-20T17:58:50;13.10;99.90
52435;DHT22;38354;52.892;6.148;2022-10-20T18:01:29;13.10;99.90
52435;DHT22;38354;52.892;6.148;2022-10-20T18:04:15;13.10;99.90
52435;DHT22;38354;52.892;6.148;2022-10-20T18:06:43;13.10;99.90
52435;DHT22;38354;52.892;6.148;2022-10-20T18:09:11;13.10;99.90
52435;DHT22;38354;52.892;6.148;2022-10-20T18:11:39;13.10;99.90
52435;DHT22;38354;52.892;6.148;2022-10-20T18:14:05;13.00;99.90
52435;DHT22;38354;52.892;6.148;2022-10-20T18:16:33;13.00;99.90
52435;DHT22;38354;52.892;6.148;2022-10-20T18:18:59;13.00;99.90
52435;DHT22;38354;52.892;6.148;2022-10-20T18:21:26;13.00;99.90
52435;DHT22;38354;52.892;6.148;2022-10-20T18:23:59;13.00;99.90
52435;DHT22;38354;52.892;6.148;2022-10-20T18:26:27;13.00;99.90
52435;DHT22;38354;52.892;6.148;2022-10-20T18:28:53;13.00;99.90
52435;DHT22;38354;52.892;6.148;2022-10-20T18:31:21;12.90;99.90
52435;DHT22;38354;52.892;6.148;2022-10-20T18:33:51;12.90;99.90
52435;DHT22;38354;52.892;6.148;2022-10-20T18:36:21;12.90;99.90
52435;DHT22;38354;52.892;6.148;2022-10-20T18:38:47;12.90;99.90
52435;DHT22;38354;52.892;6.148;2022-10-20T18:41:18;12.90;99.90
52435;DHT22;38354;52.892;6.148;2022-10-20T18:43:45;12.90;99.90
52435;DHT22;38354;52.892;6.148;2022-10-20T18:46:11;12.90;99.90
52435;DHT22;38354;52.892;6.148;2022-10-20T18:48:39;12.90;99.90
52435;DHT22;38354;52.892;6.148;2022-10-20T18:51:06;12.90;99.90
52435;DHT22;38354;52.892;6.148;2022-10-20T18:53:33;12.90;99.90
52435;DHT22;38354;52.892;6.148;2022-10-20T18:58:29;12.80;99.90
52435;DHT22;38354;52.892;6.148;2022-10-20T19:03:22;12.80;99.90
52435;DHT22;38354;52.892;6.148;2022-10-20T19:05:48;12.70;99.90
52435;DHT22;38354;52.892;6.148;2022-10-20T19:08:13;12.70;99.90
52435;DHT22;38354;52.892;6.148;2022-10-20T19:10:42;12.70;99.90
52435;DHT22;38354;52.892;6.148;2022-10-20T19:13:08;12.70;99.90
52435;DHT22;38354;52.892;6.148;2022-10-20T19:15:38;12.70;99.90
52435;DHT22;38354;52.892;6.148;2022-10-20T19:18:04;12.70;99.90
52435;DHT22;38354;52.892;6.148;2022-10-20T19:20:30;12.70;99.90
52435;DHT22;38354;52.892;6.148;2022-10-20T19:22:55;12.70;99.90
52435;DHT22;38354;52.892;6.148;2022-10-20T19:25:21;12.70;99.90
52435;DHT22;38354;52.892;6.148;2022-10-20T19:27:47;12.70;99.90
52435;DHT22;38354;52.892;6.148;2022-10-20T19:30:12;12.60;99.90
52435;DHT22;38354;52.892;6.148;2022-10-20T19:32:38;12.60;99.90
52435;DHT22;38354;52.892;6.148;2022-10-20T19:35:04;12.60;99.90
52435;DHT22;38354;52.892;6.148;2022-10-20T19:37:30;12.60;99.90
52435;DHT22;38354;52.892;6.148;2022-10-20T19:39:56;12.60;99.90
52435;DHT22;38354;52.892;6.148;2022-10-20T19:42:21;12.60;99.90
52435;DHT22;38354;52.892;6.148;2022-10-20T19:44:47;12.50;99.90
52435;DHT22;38354;52.892;6.148;2022-10-20T19:47:12;12.60;99.90
52435;DHT22;38354;52.892;6.148;2022-10-20T19:49:38;12.60;99.90
52435;DHT22;38354;52.892;6.148;2022-10-20T19:52:06;12.50;99.90
52435;DHT22;38354;52.892;6.148;2022-10-20T19:54:32;12.50;99.90
52435;DHT22;38354;52.892;6.148;2022-10-20T19:56:57;12.50;99.90
52435;DHT22;38354;52.892;6.148;2022-10-20T19:59:23;12.50;99.90
52435;DHT22;38354;52.892;6.148;2022-10-20T20:01:49;12.50;99.90
52435;DHT22;38354;52.892;6.148;2022-10-20T20:04:17;12.50;99.90
52435;DHT22;38354;52.892;6.148;2022-10-20T20:06:43;12.50;99.90
52435;DHT22;38354;52.892;6.148;2022-10-20T20:09:09;12.50;99.90
52435;DHT22;38354;52.892;6.148;2022-10-20T20:11:36;12.50;99.90
52435;DHT22;38354;52.892;6.148;2022-10-20T20:14:08;12.50;99.90
52435;DHT22;38354;52.892;6.148;2022-10-20T20:16:34;12.50;99.90
52435;DHT22;38354;52.892;6.148;2022-10-20T20:19:00;12.50;99.90
52435;DHT22;38354;52.892;6.148;2022-10-20T20:21:26;12.50;99.90
52435;DHT22;38354;52.892;6.148;2022-10-20T20:24:00;12.50;99.90
52435;DHT22;38354;52.892;6.148;2022-10-20T20:26:35;12.50;99.90
52435;DHT22;38354;52.892;6.148;2022-10-20T20:29:02;12.50;99.90
52435;DHT22;38354;52.892;6.148;2022-10-20T20:31:27;12.50;99.90
52435;DHT22;38354;52.892;6.148;2022-10-20T20:33:54;12.50;99.90
52435;DHT22;38354;52.892;6.148;2022-10-20T20:36:23;12.50;99.90
52435;DHT22;38354;52.892;6.148;2022-10-20T20:38:51;12.50;99.90
52435;DHT22;38354;52.892;6.148;2022-10-20T20:41:20;12.50;99.90
52435;DHT22;38354;52.892;6.148;2022-10-20T20:43:48;12.40;99.90
52435;DHT22;38354;52.892;6.148;2022-10-20T20:46:16;12.40;99.90
52435;DHT22;38354;52.892;6.148;2022-10-20T20:48:43;12.50;99.90
52435;DHT22;38354;52.892;6.148;2022-10-20T20:51:09;12.40;99.90
52435;DHT22;38354;52.892;6.148;2022-10-20T20:53:35;12.40;99.90
52435;DHT22;38354;52.892;6.148;2022-10-20T20:56:07;12.40;99.90
52435;DHT22;38354;52.892;6.148;2022-10-20T20:58:33;12.40;99.90
52435;DHT22;38354;52.892;6.148;2022-10-20T21:01:09;12.40;99.90
52435;DHT22;38354;52.892;6.148;2022-10-20T21:03:35;12.30;99.90
52435;DHT22;38354;52.892;6.148;2022-10-20T21:06:06;12.40;99.90
52435;DHT22;38354;52.892;6.148;2022-10-20T21:08:33;12.40;99.90
52435;DHT22;38354;52.892;6.148;2022-10-20T21:11:10;12.30;99.90
52435;DHT22;38354;52.892;6.148;2022-10-20T21:13:37;12.30;99.90
52435;DHT22;38354;52.892;6.148;2022-10-20T21:16:11;12.30;99.90
52435;DHT22;38354;52.892;6.148;2022-10-20T21:18:38;12.30;99.90